Time;durP1;ratioP1;P1;durP2;ratioP2;P2;SDS_P1;SDS_P2;PMS_P1;PMS_P2;Temp;Humidity;BMP_temperature;BMP_pressure;BME280_temperature;BME280_humidity;BME280_pressure;Samples;Min_cycle;Max_cycle;Signal;HPM_P1;HPM_P2
2022/09/14 00:01:42;;;;;;;10.90;4.73;;;15.10;99.90;;;;;;5010440;28;20301;-81
2022/09/14 00:04:13;;;;;;;11.07;5.17;;;15.10;99.90;;;;;;4986619;28;20248;-79
2022/09/14 00:06:43;;;;;;;13.03;5.00;;;15.00;99.90;;;;;;5007041;28;20215;-81
2022/09/14 00:09:19;;;;;;;15.80;4.80;;;15.00;99.90;;;;;;5004448;28;20217;-80
2022/09/14 00:11:48;;;;;;;11.30;5.17;;;14.90;99.90;;;;;;4999931;28;20290;-80
2022/09/14 00:14:15;;;;;;;11.97;5.27;;;14.90;99.90;;;;;;5016881;28;20245;-80
2022/09/14 00:16:46;;;;;;;11.87;5.03;;;14.90;99.90;;;;;;4999895;28;20203;-80
2022/09/14 00:19:22;;;;;;;11.70;4.87;;;14.80;99.90;;;;;;5006575;28;20680;-80
2022/09/14 00:21:57;;;;;;;10.07;4.87;;;14.70;99.90;;;;;;5009114;28;20317;-80
2022/09/14 00:24:29;;;;;;;12.10;5.17;;;14.80;99.90;;;;;;5005682;28;20214;-79
2022/09/14 00:26:56;;;;;;;10.30;4.80;;;14.70;99.90;;;;;;5003323;28;20219;-80
2022/09/14 00:29:23;;;;;;;14.93;5.17;;;14.70;99.90;;;;;;5005642;28;20245;-81
2022/09/14 00:31:50;;;;;;;15.77;4.77;;;14.70;99.90;;;;;;5011825;28;20198;-80
2022/09/14 00:34:18;;;;;;;12.07;5.00;;;14.70;99.90;;;;;;4985841;28;20211;-79
2022/09/14 00:36:47;;;;;;;9.67;4.80;;;14.60;99.90;;;;;;4983382;28;20219;-80
2022/09/14 00:39:16;;;;;;;11.63;5.30;;;14.70;99.90;;;;;;5012904;28;20231;-80
2022/09/14 00:41:46;;;;;;;9.83;4.27;;;14.70;99.90;;;;;;5010222;28;20555;-83
2022/09/14 00:44:13;;;;;;;11.60;4.40;;;14.70;99.90;;;;;;4996360;28;20260;-79
2022/09/14 00:46:47;;;;;;;10.10;4.93;;;14.70;99.90;;;;;;5006857;28;20207;-80
2022/09/14 00:49:22;;;;;;;12.60;5.03;;;14.70;99.90;;;;;;5009177;28;20303;-81
2022/09/14 00:52:09;;;;;;;10.43;4.40;;;14.70;99.90;;;;;;5008567;28;20214;-80
2022/09/14 00:54:47;;;;;;;10.23;5.20;;;14.80;99.90;;;;;;5002256;28;20207;-79
2022/09/14 00:57:16;;;;;;;11.03;4.60;;;14.80;99.90;;;;;;5009864;28;20214;-80
2022/09/14 00:59:44;;;;;;;9.30;5.00;;;14.80;99.90;;;;;;5002290;28;20266;-81
2022/09/14 01:02:15;;;;;;;9.53;4.33;;;14.80;99.90;;;;;;4992114;28;20622;-80
2022/09/14 01:04:43;;;;;;;12.33;5.03;;;14.90;99.90;;;;;;4989797;28;20571;-80
2022/09/14 01:07:38;;;;;;;9.60;4.50;;;14.90;99.90;;;;;;4980431;28;20227;-80
2022/09/14 01:10:35;;;;;;;8.50;4.30;;;14.90;99.90;;;;;;5007691;28;20551;-80
2022/09/14 01:13:43;;;;;;;10.80;4.63;;;14.90;99.90;;;;;;5004584;28;20215;-80
2022/09/14 01:16:33;;;;;;;11.60;4.60;;;14.90;99.90;;;;;;4954623;28;20241;-79
2022/09/14 01:19:09;;;;;;;8.20;4.40;;;14.90;99.90;;;;;;5002880;28;20203;-80
2022/09/14 01:21:40;;;;;;;9.37;3.80;;;14.90;99.90;;;;;;5005973;28;20254;-79
2022/09/14 01:24:33;;;;;;;10.47;4.17;;;15.00;99.90;;;;;;5008205;28;20203;-78
2022/09/14 01:27:21;;;;;;;9.20;3.63;;;15.00;99.90;;;;;;5002359;28;20207;-75
2022/09/14 01:29:57;;;;;;;6.07;3.87;;;15.00;99.90;;;;;;4986353;28;20287;-79
2022/09/14 01:32:31;;;;;;;7.27;3.90;;;15.00;99.90;;;;;;5005565;28;20619;-79
2022/09/14 01:35:11;;;;;;;7.47;3.87;;;15.00;99.90;;;;;;4989811;28;20223;-79
2022/09/14 01:38:09;;;;;;;11.70;4.10;;;15.10;99.90;;;;;;5005489;28;20284;-77
2022/09/14 01:40:48;;;;;;;7.33;4.13;;;15.00;99.90;;;;;;4996988;28;20222;-78
2022/09/14 01:43:32;;;;;;;8.67;4.13;;;15.00;99.90;;;;;;5006972;28;20211;-77
2022/09/14 01:46:11;;;;;;;10.00;3.77;;;14.90;99.90;;;;;;5004759;28;20218;-78
2022/09/14 01:48:51;;;;;;;10.37;4.33;;;15.00;99.90;;;;;;5007081;28;20592;-79
2022/09/14 01:51:25;;;;;;;7.13;3.70;;;14.90;99.90;;;;;;5009547;28;20681;-78
2022/09/14 01:54:02;;;;;;;6.37;3.50;;;14.90;99.90;;;;;;5006482;28;20639;-81
2022/09/14 01:56:35;;;;;;;7.30;4.20;;;14.90;99.90;;;;;;5004454;28;20630;-78
2022/09/14 01:59:25;;;;;;;7.33;4.37;;;14.90;99.90;;;;;;4991089;28;20216;-80
2022/09/14 02:01:59;;;;;;;5.70;4.10;;;14.90;99.90;;;;;;4986053;28;20242;-81
2022/09/14 02:04:53;;;;;;;8.50;3.70;;;14.90;99.90;;;;;;4988600;28;20238;-79
2022/09/14 02:07:20;;;;;;;7.07;4.17;;;14.80;99.90;;;;;;4983835;28;20707;-80
2022/09/14 02:09:48;;;;;;;9.93;4.10;;;14.80;99.90;;;;;;5005889;28;20206;-79
2022/09/14 02:12:15;;;;;;;8.40;4.33;;;14.90;99.90;;;;;;5007966;28;20309;-81
2022/09/14 02:14:45;;;;;;;12.30;4.20;;;14.80;99.90;;;;;;5010147;28;20217;-79
2022/09/14 02:17:12;;;;;;;9.30;3.90;;;14.80;99.90;;;;;;4990373;28;20305;-79
2022/09/14 02:19:57;;;;;;;6.40;3.40;;;14.90;99.90;;;;;;5011988;28;20210;-78
2022/09/14 02:22:29;;;;;;;9.07;3.60;;;14.90;99.90;;;;;;4991825;28;20647;-76
2022/09/14 02:24:56;;;;;;;7.03;3.60;;;14.90;99.90;;;;;;4983600;28;20294;-78
2022/09/14 02:27:24;;;;;;;6.47;3.13;;;14.90;99.90;;;;;;4992299;28;20198;-79
2022/09/14 02:29:51;;;;;;;7.73;3.50;;;15.00;99.90;;;;;;5004849;28;20242;-79
2022/09/14 02:32:38;;;;;;;5.60;3.50;;;15.00;99.90;;;;;;5002880;28;20257;-81
2022/09/14 02:35:53;;;;;;;6.57;3.10;;;15.00;99.90;;;;;;5002458;28;20212;-79
2022/09/14 02:38:30;;;;;;;8.40;3.30;;;15.10;99.90;;;;;;4988682;28;20357;-80
2022/09/14 02:41:06;;;;;;;8.70;3.93;;;15.00;99.90;;;;;;5005934;28;20273;-79
2022/09/14 02:44:11;;;;;;;6.73;3.90;;;15.10;99.90;;;;;;5004446;28;20265;-79
2022/09/14 02:47:14;;;;;;;6.90;3.43;;;15.10;99.90;;;;;;5007709;28;20498;-80
2022/09/14 02:50:02;;;;;;;7.17;3.30;;;15.10;99.90;;;;;;4985564;28;20658;-80
2022/09/14 02:52:38;;;;;;;11.27;4.00;;;15.00;99.90;;;;;;5002882;28;20624;-79
2022/09/14 02:55:10;;;;;;;8.10;4.10;;;15.10;99.90;;;;;;5004108;28;20787;-79
2022/09/14 02:58:05;;;;;;;4.60;3.27;;;15.10;99.90;;;;;;5004877;28;20203;-80
2022/09/14 03:00:40;;;;;;;5.17;3.67;;;15.10;99.90;;;;;;5004269;28;20278;-80
2022/09/14 03:03:09;;;;;;;10.77;3.43;;;15.10;99.90;;;;;;5007651;28;20218;-79
2022/09/14 03:05:37;;;;;;;5.47;3.30;;;15.10;99.90;;;;;;5007995;28;20306;-79
2022/09/14 03:08:05;;;;;;;8.67;3.50;;;15.10;99.90;;;;;;5003095;28;20234;-80
2022/09/14 03:10:33;;;;;;;5.97;3.27;;;15.20;99.90;;;;;;5006421;28;20706;-79
2022/09/14 03:13:00;;;;;;;6.60;3.20;;;15.20;99.90;;;;;;5000815;28;20229;-80
2022/09/14 03:15:27;;;;;;;9.00;3.43;;;15.20;99.90;;;;;;5011165;28;20219;-79
2022/09/14 03:17:54;;;;;;;9.37;3.30;;;15.20;99.90;;;;;;5008913;28;21159;-78
2022/09/14 03:20:26;;;;;;;6.07;3.37;;;15.20;99.90;;;;;;4988114;28;20229;-79
2022/09/14 03:22:53;;;;;;;8.40;3.60;;;15.20;99.90;;;;;;5003796;28;20298;-78
2022/09/14 03:25:24;;;;;;;7.97;3.87;;;15.40;99.90;;;;;;5004333;28;20282;-78
2022/09/14 03:27:56;;;;;;;8.23;3.60;;;15.30;99.90;;;;;;5007203;28;20233;-80
2022/09/14 03:30:24;;;;;;;8.43;3.90;;;15.30;99.90;;;;;;4986395;28;20668;-78
2022/09/14 03:32:51;;;;;;;9.90;3.60;;;15.10;99.90;;;;;;5002041;28;20215;-80
2022/09/14 03:35:19;;;;;;;8.43;3.50;;;15.30;99.90;;;;;;5003701;28;20214;-79
2022/09/14 03:37:49;;;;;;;7.93;4.10;;;15.30;99.90;;;;;;5005238;28;20284;-79
2022/09/14 03:40:20;;;;;;;8.13;3.83;;;15.30;99.90;;;;;;4990169;28;20207;-79
2022/09/14 03:42:49;;;;;;;9.20;4.27;;;15.30;99.90;;;;;;5005329;28;20213;-77
2022/09/14 03:45:17;;;;;;;9.07;4.50;;;15.30;99.90;;;;;;5003941;28;20816;-78
2022/09/14 03:47:45;;;;;;;9.43;3.87;;;15.30;99.90;;;;;;5002573;28;20222;-81
2022/09/14 03:50:13;;;;;;;10.00;3.63;;;15.40;99.90;;;;;;4986308;28;20214;-79
2022/09/14 03:52:40;;;;;;;10.07;4.03;;;15.40;99.90;;;;;;5009087;28;20206;-78
2022/09/14 03:55:08;;;;;;;4.43;3.53;;;15.40;99.90;;;;;;5007052;28;20610;-79
2022/09/14 03:57:38;;;;;;;9.07;4.27;;;15.40;99.90;;;;;;4990249;28;20210;-79
2022/09/14 04:00:07;;;;;;;9.53;4.03;;;15.40;99.90;;;;;;4988383;28;20213;-79
2022/09/14 04:02:43;;;;;;;10.33;4.47;;;15.40;99.90;;;;;;5008189;28;20225;-80
2022/09/14 04:05:11;;;;;;;9.17;4.90;;;15.40;99.90;;;;;;5007002;28;20221;-78
2022/09/14 04:07:38;;;;;;;7.60;4.80;;;15.40;99.90;;;;;;5000135;28;20684;-80
2022/09/14 04:10:06;;;;;;;10.40;5.07;;;15.40;99.90;;;;;;5002282;28;20277;-80
2022/09/14 04:12:35;;;;;;;8.37;4.37;;;15.40;99.90;;;;;;4984205;28;20214;-80
2022/09/14 04:15:06;;;;;;;10.37;5.00;;;15.30;99.90;;;;;;5004446;28;20711;-77
2022/09/14 04:17:33;;;;;;;12.97;4.60;;;15.30;99.90;;;;;;5002910;28;20246;-79
2022/09/14 04:20:25;;;;;;;7.37;4.30;;;15.30;99.90;;;;;;4996754;28;20207;-80
2022/09/14 04:22:51;;;;;;;8.30;4.77;;;15.30;99.90;;;;;;5002029;28;20210;-79
2022/09/14 04:25:22;;;;;;;10.87;4.63;;;15.30;99.90;;;;;;5011798;28;20341;-81
2022/09/14 04:27:50;;;;;;;9.53;4.80;;;15.30;99.90;;;;;;5010678;28;20412;-83
2022/09/14 04:30:37;;;;;;;7.83;4.60;;;15.20;99.90;;;;;;4988892;28;20250;-81
2022/09/14 04:33:04;;;;;;;10.57;6.07;;;15.20;99.90;;;;;;5003289;28;20207;-83
2022/09/14 04:35:32;;;;;;;9.50;6.03;;;15.20;99.90;;;;;;5002669;28;20668;-80
2022/09/14 04:38:02;;;;;;;9.23;6.23;;;15.20;99.90;;;;;;5002979;28;20303;-80
2022/09/14 04:40:29;;;;;;;7.73;5.67;;;15.20;99.90;;;;;;4999030;28;20274;-78
2022/09/14 04:43:04;;;;;;;12.03;5.10;;;15.20;99.90;;;;;;4989917;28;20841;-81
2022/09/14 04:45:31;;;;;;;7.17;5.60;;;15.20;99.90;;;;;;4979152;28;20225;-82
2022/09/14 04:47:58;;;;;;;9.90;5.40;;;15.20;99.90;;;;;;4985615;28;20215;-81
2022/09/14 04:50:34;;;;;;;11.70;5.40;;;15.10;99.90;;;;;;5006818;28;20469;-81
2022/09/14 04:53:03;;;;;;;8.47;5.70;;;15.10;99.90;;;;;;5000749;28;20211;-82
2022/09/14 04:55:30;;;;;;;8.00;5.40;;;15.10;99.90;;;;;;5011889;28;20505;-81
2022/09/14 04:57:59;;;;;;;9.50;6.27;;;15.10;99.90;;;;;;5002601;28;20213;-82
2022/09/14 05:00:26;;;;;;;6.57;4.63;;;15.10;99.90;;;;;;5006299;28;20289;-80
2022/09/14 05:02:53;;;;;;;10.93;5.00;;;15.10;99.90;;;;;;4989654;28;20265;-80
2022/09/14 05:05:21;;;;;;;8.07;4.40;;;15.10;99.90;;;;;;5006043;28;20214;-80
2022/09/14 05:07:47;;;;;;;8.67;4.70;;;15.10;99.90;;;;;;4993572;28;20293;-82
2022/09/14 05:10:15;;;;;;;9.20;4.70;;;15.20;99.90;;;;;;4985700;28;20290;-81
2022/09/14 05:12:42;;;;;;;7.00;4.43;;;15.10;99.90;;;;;;4995243;28;20213;-81
2022/09/14 05:15:12;;;;;;;6.57;4.60;;;15.10;99.90;;;;;;5006578;28;20199;-82
2022/09/14 05:17:39;;;;;;;8.73;4.57;;;15.00;99.90;;;;;;5007234;28;20306;-81
2022/09/14 05:20:09;;;;;;;9.87;4.40;;;15.00;99.90;;;;;;5005808;28;20301;-81
2022/09/14 05:22:36;;;;;;;7.23;4.50;;;14.90;99.90;;;;;;5002991;28;20250;-80
2022/09/14 05:25:04;;;;;;;9.37;4.43;;;14.90;99.90;;;;;;5005431;28;20731;-79
2022/09/14 05:27:31;;;;;;;8.03;4.27;;;14.90;99.90;;;;;;5001026;28;20207;-80
2022/09/14 05:29:57;;;;;;;8.13;4.73;;;15.10;99.90;;;;;;5004651;28;20231;-80
2022/09/14 05:32:27;;;;;;;6.93;4.47;;;14.90;99.90;;;;;;5013758;28;20238;-80
2022/09/14 05:34:54;;;;;;;5.23;3.80;;;14.90;99.90;;;;;;5012323;28;20214;-80
2022/09/14 05:37:21;;;;;;;8.97;4.00;;;15.10;99.90;;;;;;5008020;28;20717;-80
2022/09/14 05:39:48;;;;;;;7.20;4.37;;;15.00;99.90;;;;;;4990201;28;20211;-79
2022/09/14 05:42:16;;;;;;;8.70;4.53;;;15.00;99.90;;;;;;4989883;28;20203;-81
2022/09/14 05:44:43;;;;;;;7.97;4.67;;;15.00;99.90;;;;;;5006854;28;20705;-80
2022/09/14 05:47:09;;;;;;;9.97;4.13;;;15.00;99.90;;;;;;4988295;28;20249;-80
2022/09/14 05:49:36;;;;;;;5.30;3.90;;;15.00;99.90;;;;;;4988672;28;20226;-80
2022/09/14 05:52:04;;;;;;;14.57;4.60;;;15.00;99.90;;;;;;4987394;28;20254;-76
2022/09/14 05:54:31;;;;;;;7.87;4.07;;;15.10;99.90;;;;;;4975350;28;20215;-77
2022/09/14 05:56:58;;;;;;;8.93;4.47;;;15.20;99.90;;;;;;4984057;28;20192;-77
2022/09/14 05:59:30;;;;;;;6.93;4.13;;;15.20;99.90;;;;;;4999863;28;20261;-83
2022/09/14 06:01:57;;;;;;;8.83;4.47;;;15.30;99.90;;;;;;5007578;28;20214;-82
2022/09/14 06:04:25;;;;;;;7.10;4.33;;;15.30;99.90;;;;;;5009722;28;20210;-82
2022/09/14 06:06:51;;;;;;;6.60;3.80;;;15.40;99.90;;;;;;4991474;28;20241;-82
2022/09/14 06:09:38;;;;;;;8.90;4.53;;;15.40;99.90;;;;;;5010064;28;20290;-81
2022/09/14 06:12:05;;;;;;;9.00;4.60;;;15.50;99.90;;;;;;5006812;28;20230;-81
2022/09/14 06:14:32;;;;;;;9.33;4.53;;;15.50;99.90;;;;;;5010018;28;20215;-82
2022/09/14 06:16:59;;;;;;;8.43;4.50;;;15.60;99.90;;;;;;5011024;28;20659;-82
2022/09/14 06:19:26;;;;;;;13.17;4.73;;;15.60;99.90;;;;;;5012991;28;20213;-81
2022/09/14 06:21:56;;;;;;;9.03;4.30;;;15.70;99.90;;;;;;5008583;28;20222;-83
2022/09/14 06:24:23;;;;;;;11.20;5.10;;;15.80;99.90;;;;;;5000494;28;20203;-83
2022/09/14 06:26:50;;;;;;;7.63;4.37;;;15.90;99.90;;;;;;5000574;28;20261;-82
2022/09/14 06:29:19;;;;;;;7.50;4.50;;;15.90;99.90;;;;;;5007653;28;20241;-81
2022/09/14 06:31:46;;;;;;;8.57;4.43;;;16.00;99.90;;;;;;5007952;28;20223;-82
2022/09/14 06:34:13;;;;;;;9.37;4.30;;;16.00;99.90;;;;;;5006093;28;20277;-80
2022/09/14 06:36:43;;;;;;;9.33;4.73;;;16.10;99.90;;;;;;5007979;28;20246;-83
2022/09/14 06:39:11;;;;;;;6.60;4.43;;;16.10;99.90;;;;;;4988314;28;20238;-81
2022/09/14 06:41:38;;;;;;;8.10;4.17;;;16.20;99.90;;;;;;5008736;28;20218;-83
2022/09/14 06:44:05;;;;;;;7.70;4.13;;;16.30;99.90;;;;;;5012250;28;20215;-81
2022/09/14 06:46:35;;;;;;;6.87;4.20;;;16.30;99.90;;;;;;5008802;28;20214;-77
2022/09/14 06:49:08;;;;;;;7.93;4.07;;;16.30;99.90;;;;;;5005219;28;20223;-80
2022/09/14 06:51:46;;;;;;;9.37;4.20;;;16.40;99.90;;;;;;4999121;28;20207;-78
2022/09/14 06:54:14;;;;;;;10.10;4.00;;;16.40;99.90;;;;;;4994702;28;20206;-80
2022/09/14 06:56:43;;;;;;;7.77;4.40;;;16.50;99.90;;;;;;5000503;28;20676;-79
2022/09/14 06:59:12;;;;;;;7.47;4.10;;;16.50;99.90;;;;;;4985040;28;20257;-80
2022/09/14 07:01:39;;;;;;;10.47;5.23;;;16.60;99.90;;;;;;5005485;28;20227;-79
2022/09/14 07:04:06;;;;;;;9.07;4.53;;;16.60;99.90;;;;;;5008600;28;20206;-80
2022/09/14 07:06:43;;;;;;;11.00;4.03;;;16.70;99.90;;;;;;4994270;28;20754;-79
2022/09/14 07:09:11;;;;;;;9.33;3.90;;;16.70;99.90;;;;;;5006541;28;20261;-81
2022/09/14 07:11:39;;;;;;;8.77;4.37;;;16.70;99.90;;;;;;5006738;28;20190;-80
2022/09/14 07:14:06;;;;;;;7.73;4.20;;;16.70;99.90;;;;;;5002754;28;20218;-77
2022/09/14 07:16:35;;;;;;;7.90;4.22;;;16.90;99.90;;;;;;4986485;28;20230;-79
2022/09/14 07:19:04;;;;;;;6.57;4.30;;;16.90;99.90;;;;;;5005172;28;20289;-77
2022/09/14 07:21:34;;;;;;;7.05;4.47;;;16.90;99.90;;;;;;5000325;28;20211;-78
2022/09/14 07:24:01;;;;;;;6.97;5.20;;;16.90;99.90;;;;;;5002956;28;20191;-80
2022/09/14 07:26:31;;;;;;;7.28;5.32;;;17.00;99.90;;;;;;4987929;28;20610;-76
2022/09/14 07:29:03;;;;;;;9.05;5.00;;;17.00;99.90;;;;;;4998306;28;20566;-80
2022/09/14 07:31:36;;;;;;;9.73;5.20;;;17.10;99.90;;;;;;4998990;28;20222;-78
2022/09/14 07:34:04;;;;;;;11.27;5.70;;;17.10;99.90;;;;;;5002751;28;20206;-79
2022/09/14 07:36:33;;;;;;;10.43;5.68;;;17.10;99.90;;;;;;4984169;28;20257;-80
2022/09/14 07:39:03;;;;;;;8.35;5.88;;;17.20;99.90;;;;;;4980297;28;20243;-81
2022/09/14 07:41:33;;;;;;;10.67;5.60;;;17.00;99.90;;;;;;4999548;28;20657;-81
2022/09/14 07:44:02;;;;;;;10.18;5.68;;;17.00;99.90;;;;;;4999892;28;20235;-79
2022/09/14 07:46:37;;;;;;;11.82;6.32;;;17.00;99.90;;;;;;4995661;28;20238;-81
2022/09/14 07:49:06;;;;;;;7.45;4.68;;;16.90;99.90;;;;;;4979358;28;20230;-81
2022/09/14 07:51:33;;;;;;;10.97;6.33;;;17.00;99.90;;;;;;4998658;28;20207;-80
2022/09/14 07:54:01;;;;;;;11.07;5.93;;;17.00;99.90;;;;;;4998781;28;20241;-80
2022/09/14 07:56:28;;;;;;;10.63;5.80;;;17.10;99.90;;;;;;4995677;28;20207;-81
2022/09/14 07:58:57;;;;;;;13.98;6.38;;;17.10;99.90;;;;;;4990735;28;20214;-81
2022/09/14 08:01:45;;;;;;;12.98;5.68;;;17.20;99.90;;;;;;4998638;28;20246;-80
2022/09/14 08:04:13;;;;;;;10.00;5.72;;;17.30;99.90;;;;;;4999474;28;20198;-79
2022/09/14 08:06:41;;;;;;;11.57;5.28;;;17.40;99.90;;;;;;4996947;28;20227;-80
2022/09/14 08:09:08;;;;;;;11.57;5.55;;;17.50;99.90;;;;;;4994610;28;20656;-79
2022/09/14 08:11:36;;;;;;;6.35;4.32;;;17.60;99.90;;;;;;4983350;28;20722;-80
2022/09/14 08:14:08;;;;;;;13.77;5.30;;;17.60;99.90;;;;;;4984027;28;20263;-81
2022/09/14 08:16:37;;;;;;;8.60;4.72;;;17.60;99.90;;;;;;4997538;28;20218;-79
2022/09/14 08:19:11;;;;;;;7.72;4.68;;;17.60;99.90;;;;;;5000630;28;22003;-81
2022/09/14 08:21:38;;;;;;;9.98;4.93;;;17.60;99.90;;;;;;4998964;28;20230;-81
2022/09/14 08:24:13;;;;;;;9.32;4.95;;;17.60;99.90;;;;;;4983530;28;20642;-77
2022/09/14 08:26:40;;;;;;;6.55;3.90;;;17.60;99.90;;;;;;4997483;28;20211;-80
2022/09/14 08:29:08;;;;;;;8.20;3.90;;;17.60;99.90;;;;;;4980534;28;20250;-82
2022/09/14 08:31:37;;;;;;;10.75;4.35;;;17.70;99.90;;;;;;5003565;28;20234;-82
2022/09/14 08:34:05;;;;;;;10.00;5.20;;;17.70;99.90;;;;;;5006846;28;20593;-82
2022/09/14 08:36:34;;;;;;;8.77;4.63;;;17.70;99.90;;;;;;4986309;28;20380;-83
2022/09/14 08:39:03;;;;;;;12.52;4.38;;;17.80;99.90;;;;;;5004362;28;20370;-82
2022/09/14 08:41:29;;;;;;;8.70;4.03;;;17.90;99.90;;;;;;4984602;28;21045;-81
2022/09/14 08:44:19;;;;;;;12.77;4.10;;;18.10;99.90;;;;;;4983320;28;20217;-83
2022/09/14 08:46:57;;;;;;;6.15;4.13;;;18.00;99.90;;;;;;4992449;28;20258;-83
2022/09/14 08:49:55;;;;;;;11.18;4.82;;;18.00;99.90;;;;;;4986076;28;20308;-81
2022/09/14 08:52:27;;;;;;;6.57;3.42;;;18.00;99.90;;;;;;5001254;28;20214;-82
2022/09/14 08:54:58;;;;;;;10.93;4.32;;;18.10;99.90;;;;;;5000173;28;20241;-82
2022/09/14 08:57:37;;;;;;;12.45;4.28;;;18.20;99.90;;;;;;5000916;28;20219;-83
2022/09/14 09:00:12;;;;;;;6.65;4.10;;;18.20;99.90;;;;;;5000692;28;20202;-84
2022/09/14 09:02:49;;;;;;;10.40;4.40;;;18.20;99.90;;;;;;4999491;28;20586;-82
2022/09/14 09:05:46;;;;;;;8.18;4.18;;;18.20;99.90;;;;;;4985121;28;20209;-81
2022/09/14 09:08:19;;;;;;;9.70;4.53;;;18.30;99.90;;;;;;4985049;28;20198;-82
2022/09/14 09:10:46;;;;;;;10.68;4.30;;;18.30;99.90;;;;;;5002930;28;20238;-80
2022/09/14 09:13:18;;;;;;;9.60;4.50;;;18.40;99.90;;;;;;4983228;28;20299;-82
2022/09/14 09:15:54;;;;;;;11.65;4.22;;;18.40;99.90;;;;;;5000268;28;20546;-82
2022/09/14 09:18:50;;;;;;;8.65;4.28;;;18.50;99.90;;;;;;4998815;28;20225;-81
2022/09/14 09:21:30;;;;;;;10.18;4.57;;;18.60;99.90;;;;;;4998684;28;20290;-83
2022/09/14 09:24:23;;;;;;;7.57;4.00;;;18.60;99.90;;;;;;5002385;28;20301;-81
2022/09/14 09:26:49;;;;;;;5.95;3.47;;;18.70;99.90;;;;;;5000399;28;20207;-82
2022/09/14 09:29:19;;;;;;;6.70;3.67;;;18.70;99.90;;;;;;4983074;28;20223;-82
2022/09/14 09:31:52;;;;;;;8.93;4.07;;;18.90;99.90;;;;;;5001583;28;20222;-81
2022/09/14 09:34:26;;;;;;;7.22;3.15;;;19.00;99.90;;;;;;4998564;28;20211;-81
2022/09/14 09:36:54;;;;;;;9.18;3.28;;;19.00;99.90;;;;;;5000793;28;20658;-80
2022/09/14 09:39:25;;;;;;;5.40;3.25;;;19.20;99.90;;;;;;4999235;28;20238;-82
2022/09/14 09:42:01;;;;;;;6.55;3.58;;;19.00;99.90;;;;;;4999223;28;20245;-80
2022/09/14 09:44:28;;;;;;;11.88;3.35;;;19.00;99.90;;;;;;5002635;28;20273;-80
2022/09/14 09:46:58;;;;;;;6.55;3.20;;;19.00;99.90;;;;;;5000578;28;20226;-83
2022/09/14 09:49:34;;;;;;;7.28;3.72;;;19.00;99.90;;;;;;5000932;28;20273;-82
2022/09/14 09:52:13;;;;;;;6.25;3.45;;;19.10;99.90;;;;;;4982380;28;20290;-82
2022/09/14 09:54:47;;;;;;;8.63;3.80;;;19.10;99.90;;;;;;5001326;28;20217;-80
2022/09/14 09:57:34;;;;;;;10.95;3.88;;;19.10;99.90;;;;;;4998420;28;20672;-77
2022/09/14 10:00:22;;;;;;;8.23;3.30;;;19.10;99.90;;;;;;4996691;28;20238;-79
2022/09/14 10:02:49;;;;;;;6.18;3.17;;;19.10;99.90;;;;;;4993904;28;20214;-78
2022/09/14 10:05:16;;;;;;;10.82;3.80;;;19.10;99.90;;;;;;4994364;28;20199;-79
2022/09/14 10:07:48;;;;;;;8.07;3.05;;;19.20;99.90;;;;;;4996280;28;20241;-79
2022/09/14 10:10:18;;;;;;;10.23;3.38;;;19.20;99.90;;;;;;4994245;28;20233;-78
2022/09/14 10:12:51;;;;;;;8.63;3.17;;;19.30;99.90;;;;;;4998938;28;20261;-78
2022/09/14 10:15:24;;;;;;;8.20;3.10;;;19.30;99.90;;;;;;4994105;28;20207;-79
2022/09/14 10:18:10;;;;;;;5.47;2.65;;;19.40;99.90;;;;;;4980921;28;20229;-79
2022/09/14 10:20:41;;;;;;;7.63;2.88;;;19.50;99.90;;;;;;4993121;28;20976;-81
2022/09/14 10:23:17;;;;;;;5.78;3.20;;;19.60;99.90;;;;;;4997234;28;20219;-79
2022/09/14 10:25:51;;;;;;;7.05;2.72;;;19.70;99.90;;;;;;4998885;28;20293;-79
2022/09/14 10:28:23;;;;;;;6.60;2.67;;;19.80;99.90;;;;;;5000443;28;20212;-77
2022/09/14 10:31:07;;;;;;;5.47;2.50;;;20.00;99.90;;;;;;4996622;28;20289;-79
2022/09/14 10:33:34;;;;;;;8.50;2.65;;;20.10;99.90;;;;;;5004090;28;20203;-74
2022/09/14 10:36:24;;;;;;;6.93;2.38;;;20.20;99.90;;;;;;4998571;28;20503;-80
2022/09/14 10:39:05;;;;;;;6.07;2.42;;;20.30;99.90;;;;;;4998031;28;20300;-79
2022/09/14 10:42:06;;;;;;;6.00;2.15;;;20.40;99.90;;;;;;4993809;28;20618;-78
2022/09/14 10:44:44;;;;;;;8.52;2.45;;;20.30;99.90;;;;;;4988679;28;20229;-79
2022/09/14 10:47:30;;;;;;;5.53;2.20;;;20.30;99.90;;;;;;4988221;28;20292;-74
2022/09/14 10:50:26;;;;;;;4.63;2.00;;;20.30;99.90;;;;;;4994274;28;20317;-75
2022/09/14 10:53:19;;;;;;;7.25;2.30;;;20.30;99.90;;;;;;5000167;28;20733;-79
2022/09/14 10:56:00;;;;;;;4.68;2.20;;;20.30;99.90;;;;;;4996853;28;20239;-79
2022/09/14 10:58:53;;;;;;;7.45;2.90;;;20.30;99.90;;;;;;4997817;28;20199;-78
2022/09/14 11:01:42;;;;;;;7.15;3.50;;;20.40;99.90;;;;;;4999706;28;20775;-80
2022/09/14 11:04:12;;;;;;;7.15;2.70;;;20.50;99.90;;;;;;5001563;28;20362;-80
2022/09/14 11:07:11;;;;;;;7.78;2.17;;;20.60;99.90;;;;;;4999788;28;20625;-79
2022/09/14 11:09:55;;;;;;;8.63;1.95;;;20.60;99.90;;;;;;5003295;28;20218;-80
2022/09/14 11:12:37;;;;;;;7.07;1.70;;;20.60;99.90;;;;;;4985749;28;20671;-80
2022/09/14 11:15:48;;;;;;;6.18;1.95;;;20.60;99.90;;;;;;5002005;28;20442;-79
2022/09/14 11:18:27;;;;;;;5.45;1.80;;;20.70;99.90;;;;;;5002821;28;20225;-81
2022/09/14 11:21:09;;;;;;;7.00;2.00;;;20.60;99.90;;;;;;5004034;28;20217;-80
2022/09/14 11:23:55;;;;;;;5.90;1.65;;;20.60;99.90;;;;;;5000155;28;20217;-81
2022/09/14 11:26:24;;;;;;;6.93;1.80;;;20.60;99.90;;;;;;5004677;28;20214;-80
2022/09/14 11:29:02;;;;;;;9.65;2.45;;;20.60;99.90;;;;;;4964196;28;20610;-80
2022/09/14 11:31:38;;;;;;;6.18;1.40;;;20.70;99.90;;;;;;4979355;28;20615;-80
2022/09/14 11:34:28;;;;;;;7.07;1.98;;;20.80;99.90;;;;;;4998738;28;20755;-79
2022/09/14 11:37:00;;;;;;;7.72;1.90;;;20.70;99.90;;;;;;5000037;28;20659;-79
2022/09/14 11:39:35;;;;;;;4.47;1.33;;;20.70;99.90;;;;;;4998607;28;20300;-80
2022/09/14 11:42:11;;;;;;;6.18;1.67;;;20.80;99.90;;;;;;4997311;28;20225;-79
2022/09/14 11:44:41;;;;;;;4.65;1.35;;;20.80;99.90;;;;;;4997718;28;20215;-78
2022/09/14 11:47:16;;;;;;;6.22;1.92;;;20.90;99.90;;;;;;4998797;28;20278;-81
2022/09/14 11:50:11;;;;;;;8.50;1.73;;;20.90;99.90;;;;;;4998762;28;20214;-79
2022/09/14 11:52:38;;;;;;;4.97;1.80;;;21.00;99.90;;;;;;4999920;28;20215;-79
2022/09/14 11:55:10;;;;;;;3.80;1.30;;;20.90;99.90;;;;;;4998479;28;20249;-79
2022/09/14 11:57:37;;;;;;;7.32;1.70;;;20.80;99.90;;;;;;4999101;28;20207;-78
2022/09/14 12:00:21;;;;;;;6.15;1.45;;;20.80;99.90;;;;;;4998540;28;20668;-80
2022/09/14 12:03:00;;;;;;;5.30;1.52;;;20.80;99.90;;;;;;5000943;28;20309;-78
2022/09/14 12:05:30;;;;;;;4.40;1.40;;;20.90;99.90;;;;;;4999921;28;20309;-79
2022/09/14 12:08:01;;;;;;;4.32;1.50;;;20.90;99.90;;;;;;4996425;28;20294;-79
2022/09/14 12:10:29;;;;;;;497.42;70.50;;;20.90;99.90;;;;;;4999727;28;20345;-80
2022/09/14 12:13:05;;;;;;;34.38;5.60;;;20.90;99.90;;;;;;4996818;28;20225;-79
2022/09/14 12:15:36;;;;;;;6.35;1.63;;;21.00;99.90;;;;;;4996932;28;20221;-78
2022/09/14 12:18:06;;;;;;;9.40;1.70;;;21.10;99.90;;;;;;4998829;28;20203;-80
2022/09/14 12:20:33;;;;;;;7.65;1.92;;;21.00;99.90;;;;;;4978619;28;20257;-81
2022/09/14 12:23:43;;;;;;;5.70;1.35;;;20.90;99.90;;;;;;4997339;28;20211;-80
2022/09/14 12:26:10;;;;;;;11.70;2.28;;;21.00;99.90;;;;;;4996956;28;20206;-80
2022/09/14 12:28:38;;;;;;;6.22;1.30;;;21.00;99.90;;;;;;4996820;28;20214;-79
2022/09/14 12:31:27;;;;;;;9.40;2.00;;;21.00;99.90;;;;;;4979707;28;20239;-79
2022/09/14 12:34:13;;;;;;;7.28;1.30;;;21.10;99.90;;;;;;4980160;28;20238;-81
2022/09/14 12:36:41;;;;;;;3.88;1.42;;;21.10;99.90;;;;;;4980591;28;20565;-80
2022/09/14 12:39:29;;;;;;;5.60;1.20;;;21.10;99.90;;;;;;4996118;28;20766;-79
2022/09/14 12:41:56;;;;;;;4.35;1.55;;;21.10;99.90;;;;;;4995810;28;20758;-80
2022/09/14 12:44:43;;;;;;;3.85;1.40;;;21.10;99.90;;;;;;4998265;28;20316;-80
2022/09/14 12:47:28;;;;;;;4.47;1.50;;;21.20;99.90;;;;;;4998318;28;20310;-80
2022/09/14 12:50:19;;;;;;;6.35;1.42;;;21.10;99.90;;;;;;4998340;28;20646;-78
2022/09/14 12:53:19;;;;;;;5.43;1.33;;;21.10;99.90;;;;;;4999350;28;20321;-79
2022/09/14 12:55:57;;;;;;;7.35;1.60;;;21.10;99.90;;;;;;4998128;28;20246;-79
2022/09/14 12:58:49;;;;;;;4.72;1.42;;;21.10;99.90;;;;;;4997264;28;20211;-80
2022/09/14 13:01:30;;;;;;;4.55;1.55;;;21.20;99.90;;;;;;4998344;28;20259;-80
2022/09/14 13:03:58;;;;;;;4.35;1.90;;;21.30;99.90;;;;;;4995424;28;20214;-81
2022/09/14 13:06:39;;;;;;;7.22;1.48;;;21.60;99.90;;;;;;4996031;28;20638;-79
2022/09/14 13:09:16;;;;;;;3.70;1.20;;;21.80;99.90;;;;;;4996510;28;20318;-79
2022/09/14 13:11:45;;;;;;;3.88;1.60;;;22.00;99.90;;;;;;4997582;28;20242;-80
2022/09/14 13:14:17;;;;;;;5.05;1.55;;;22.10;99.90;;;;;;4995628;28;20217;-80
2022/09/14 13:16:48;;;;;;;7.95;1.73;;;22.20;99.90;;;;;;5001583;28;20230;-79
2022/09/14 13:19:24;;;;;;;5.15;1.45;;;22.10;99.90;;;;;;4997860;28;20208;-82